Time;durP1;ratioP1;P1;durP2;ratioP2;P2;SDS_P1;SDS_P2;PMS_P1;PMS_P2;Temp;Humidity;BMP_temperature;BMP_pressure;BME280_temperature;BME280_humidity;BME280_pressure;Samples;Min_cycle;Max_cycle;Signal;HPM_P1;HPM_P2
2022/12/12 00:01:25;;;;;;;;;;;;;;;;;;5018277;28;19909;-70
2022/12/12 00:03:51;;;;;;;;;;;;;;;;;;5012140;28;19959;-69
2022/12/12 00:06:17;;;;;;;;;;;;;;;;;;5011763;28;20432;-70
2022/12/12 00:08:43;;;;;;;;;;;;;;;;;;5022830;28;20315;-70
2022/12/12 00:11:09;;;;;;;;;;;;;;;;;;5031106;28;19909;-70
2022/12/12 00:13:34;;;;;;;;;;;;;;;;;;5031156;28;20305;-70
2022/12/12 00:16:00;;;;;;;;;;;;;;;;;;5031557;28;19913;-70
2022/12/12 00:18:26;;;;;;;;;;;;;;;;;;5029629;28;19913;-69
2022/12/12 00:20:52;;;;;;;;;;;;;;;;;;5030976;28;20386;-69
2022/12/12 00:23:18;;;;;;;;;;;;;;;;;;5030469;28;19913;-70
2022/12/12 00:25:44;;;;;;;;;;;;;;;;;;5030712;28;19909;-69
2022/12/12 00:28:10;;;;;;;;;;;;;;;;;;5030712;28;20398;-70
2022/12/12 00:30:36;;;;;;;;;;;;;;;;;;5030770;28;19912;-70
2022/12/12 00:33:02;;;;;;;;;;;;;;;;;;5024140;28;20382;-70
2022/12/12 00:35:28;;;;;;;;;;;;;;;;;;5030623;28;19917;-70
2022/12/12 00:37:53;;;;;;;;;;;;;;;;;;5017337;28;19921;-69
2022/12/12 00:40:19;;;;;;;;;;;;;;;;;;5017946;28;19921;-70
2022/12/12 00:42:45;;;;;;;;;;;;;;;;;;5013993;28;20020;-70
2022/12/12 00:45:11;;;;;;;;;;;;;;;;;;5015384;28;19945;-70
2022/12/12 00:47:37;;;;;;;;;;;;;;;;;;5011942;28;19964;-70
2022/12/12 00:50:03;;;;;;;;;;;;;;;;;;5011220;28;19941;-70
2022/12/12 00:52:29;;;;;;;;;;;;;;;;;;5011413;28;20382;-70
2022/12/12 00:54:55;;;;;;;;;;;;;;;;;;5025277;28;19924;-70
2022/12/12 00:57:20;;;;;;;;;;;;;;;;;;5030211;28;19913;-69
2022/12/12 00:59:46;;;;;;;;;;;;;;;;;;5030758;28;19936;-70
2022/12/12 01:02:12;;;;;;;;;;;;;;;;;;5030134;28;20004;-70
2022/12/12 01:04:38;;;;;;;;;;;;;;;;;;5029852;28;20378;-70
2022/12/12 01:07:04;;;;;;;;;;;;;;;;;;5021082;28;19928;-70
2022/12/12 01:09:30;;;;;;;;;;;;;;;;;;5011100;28;20365;-70
2022/12/12 01:11:56;;;;;;;;;;;;;;;;;;5017072;28;19920;-70
2022/12/12 01:14:22;;;;;;;;;;;;;;;;;;5023559;28;20403;-71
2022/12/12 01:16:48;;;;;;;;;;;;;;;;;;5030040;28;20655;-69
2022/12/12 01:19:13;;;;;;;;;;;;;;;;;;5029617;28;19956;-70
2022/12/12 01:21:39;;;;;;;;;;;;;;;;;;5030074;28;19917;-70
2022/12/12 01:24:05;;;;;;;;;;;;;;;;;;5019170;28;19953;-70
2022/12/12 01:26:31;;;;;;;;;;;;;;;;;;5010910;28;20358;-70
2022/12/12 01:28:57;;;;;;;;;;;;;;;;;;5010845;28;20007;-70
2022/12/12 01:31:23;;;;;;;;;;;;;;;;;;5010726;28;19964;-70
2022/12/12 01:33:49;;;;;;;;;;;;;;;;;;5013263;28;19947;-70
2022/12/12 01:36:15;;;;;;;;;;;;;;;;;;5029730;28;19952;-70
2022/12/12 01:38:41;;;;;;;;;;;;;;;;;;5030135;28;19921;-70
2022/12/12 01:41:07;;;;;;;;;;;;;;;;;;5029416;28;19916;-70
2022/12/12 01:43:33;;;;;;;;;;;;;;;;;;5030039;28;20336;-70
2022/12/12 01:45:59;;;;;;;;;;;;;;;;;;5029544;28;19959;-70
2022/12/12 01:48:25;;;;;;;;;;;;;;;;;;5028949;28;20279;-69
2022/12/12 01:50:51;;;;;;;;;;;;;;;;;;5029729;28;19927;-70
2022/12/12 01:53:17;;;;;;;;;;;;;;;;;;5027670;28;19939;-70
2022/12/12 01:55:43;;;;;;;;;;;;;;;;;;5010628;28;19917;-70
2022/12/12 01:58:09;;;;;;;;;;;;;;;;;;5010846;28;20381;-70
2022/12/12 02:00:34;;;;;;;;;;;;;;;;;;5010455;28;19909;-70
2022/12/12 02:03:00;;;;;;;;;;;;;;;;;;5016659;28;20438;-69
2022/12/12 02:05:26;;;;;;;;;;;;;;;;;;5029364;28;19917;-70
2022/12/12 02:07:53;;;;;;;;;;;;;;;;;;5024364;28;20399;-70
2022/12/12 02:10:18;;;;;;;;;;;;;;;;;;5029197;28;20374;-70
2022/12/12 02:12:45;;;;;;;;;;;;;;;;;;5029381;28;19918;-70
2022/12/12 02:15:10;;;;;;;;;;;;;;;;;;5028814;28;19913;-69
2022/12/12 02:17:36;;;;;;;;;;;;;;;;;;5028390;28;19940;-69
2022/12/12 02:20:02;;;;;;;;;;;;;;;;;;5028838;28;19924;-70
2022/12/12 02:22:28;;;;;;;;;;;;;;;;;;5028797;28;20028;-70
2022/12/12 02:24:54;;;;;;;;;;;;;;;;;;5028671;28;19909;-70
2022/12/12 02:27:20;;;;;;;;;;;;;;;;;;5027812;28;19928;-69
2022/12/12 02:29:46;;;;;;;;;;;;;;;;;;5028652;28;19949;-69
2022/12/12 02:32:12;;;;;;;;;;;;;;;;;;5024508;28;19914;-69
2022/12/12 02:34:38;;;;;;;;;;;;;;;;;;5019566;28;19913;-69
2022/12/12 02:37:04;;;;;;;;;;;;;;;;;;5029028;28;19921;-69
2022/12/12 02:39:29;;;;;;;;;;;;;;;;;;5028304;28;19909;-70
2022/12/12 02:41:55;;;;;;;;;;;;;;;;;;5031318;28;19913;-71
2022/12/12 02:44:21;;;;;;;;;;;;;;;;;;5030634;28;19959;-71
2022/12/12 02:46:47;;;;;;;;;;;;;;;;;;5015661;28;20589;-71
2022/12/12 02:49:13;;;;;;;;;;;;;;;;;;5032922;28;20039;-70
2022/12/12 02:51:39;;;;;;;;;;;;;;;;;;5032649;28;20409;-71
2022/12/12 02:54:05;;;;;;;;;;;;;;;;;;5033344;28;19909;-71
2022/12/12 02:56:31;;;;;;;;;;;;;;;;;;5032556;28;20007;-71
2022/12/12 02:58:57;;;;;;;;;;;;;;;;;;5032798;28;20275;-70
2022/12/12 03:01:23;;;;;;;;;;;;;;;;;;5032263;28;19959;-70
2022/12/12 03:09:18;;;;;;;;;;;;;;;;;;5013367;28;19928;-71
2022/12/12 03:11:44;;;;;;;;;;;;;;;;;;5013731;28;19917;-71
2022/12/12 03:14:10;;;;;;;;;;;;;;;;;;5013282;28;19914;-70
2022/12/12 03:16:37;;;;;;;;;;;;;;;;;;5012812;28;19949;-70
2022/12/12 03:19:03;;;;;;;;;;;;;;;;;;5029999;28;19921;-71
2022/12/12 03:21:29;;;;;;;;;;;;;;;;;;5031608;28;19955;-70
2022/12/12 03:23:55;;;;;;;;;;;;;;;;;;5032627;28;20011;-70
2022/12/12 03:26:21;;;;;;;;;;;;;;;;;;5032012;28;19956;-70
2022/12/12 03:28:46;;;;;;;;;;;;;;;;;;5031635;28;19927;-70
2022/12/12 03:31:12;;;;;;;;;;;;;;;;;;5031480;28;19913;-70
2022/12/12 03:33:38;;;;;;;;;;;;;;;;;;5031634;28;19914;-71
2022/12/12 03:36:04;;;;;;;;;;;;;;;;;;5031838;28;19909;-71
2022/12/12 03:38:30;;;;;;;;;;;;;;;;;;5031992;28;19913;-71
2022/12/12 03:40:57;;;;;;;;;;;;;;;;;;5031685;28;19920;-71
2022/12/12 03:43:23;;;;;;;;;;;;;;;;;;5031812;28;19909;-71
2022/12/12 03:45:49;;;;;;;;;;;;;;;;;;5031446;28;19919;-70
2022/12/12 03:48:15;;;;;;;;;;;;;;;;;;5031864;28;19963;-69
2022/12/12 03:50:41;;;;;;;;;;;;;;;;;;5031521;28;19913;-69
2022/12/12 03:53:07;;;;;;;;;;;;;;;;;;5031507;28;19913;-68
2022/12/12 03:55:33;;;;;;;;;;;;;;;;;;5031627;28;19913;-69
2022/12/12 03:57:59;;;;;;;;;;;;;;;;;;5029865;28;20286;-69
2022/12/12 04:00:24;;;;;;;;;;;;;;;;;;5031043;28;20003;-69
2022/12/12 04:02:50;;;;;;;;;;;;;;;;;;5032311;28;20264;-69
2022/12/12 04:05:16;;;;;;;;;;;;;;;;;;5031471;28;19913;-70
2022/12/12 04:07:42;;;;;;;;;;;;;;;;;;5029579;28;19964;-71
2022/12/12 04:12:59;;;;;;;;;;;;;;;;;;5025906;28;19982;-70
2022/12/12 04:15:25;;;;;;;;;;;;;;;;;;5031552;28;19913;-70
2022/12/12 04:17:51;;;;;;;;;;;;;;;;;;5030985;28;19936;-70
2022/12/12 04:23:17;;;;;;;;;;;;;;;;;;5031276;28;19966;-70
2022/12/12 04:26:37;;;;;;;;;;;;;;;;;;5031051;28;19920;-70
2022/12/12 04:28:28;;;;;;;;;;;;;;;;;;5030436;28;19921;-70
2022/12/12 04:30:54;;;;;;;;;;;;;;;;;;5031085;28;20432;-70
2022/12/12 04:33:20;;;;;;;;;;;;;;;;;;5030840;28;19964;-70
2022/12/12 04:35:46;;;;;;;;;;;;;;;;;;5030937;28;19940;-70
2022/12/12 04:38:12;;;;;;;;;;;;;;;;;;5030795;28;19913;-71
2022/12/12 04:40:38;;;;;;;;;;;;;;;;;;5029552;28;19909;-71
2022/12/12 04:43:04;;;;;;;;;;;;;;;;;;5029193;28;19948;-71
2022/12/12 04:45:29;;;;;;;;;;;;;;;;;;5030249;28;19913;-69
2022/12/12 04:47:55;;;;;;;;;;;;;;;;;;5030189;28;19940;-69
2022/12/12 04:50:21;;;;;;;;;;;;;;;;;;5031100;28;20380;-70
2022/12/12 04:52:47;;;;;;;;;;;;;;;;;;5030415;28;19917;-69
2022/12/12 04:55:13;;;;;;;;;;;;;;;;;;5030615;28;20309;-70
2022/12/12 04:57:39;;;;;;;;;;;;;;;;;;5012981;28;19956;-69
2022/12/12 05:00:05;;;;;;;;;;;;;;;;;;5011460;28;19920;-69
2022/12/12 05:02:31;;;;;;;;;;;;;;;;;;5027967;28;20417;-67
2022/12/12 05:04:57;;;;;;;;;;;;;;;;;;5029947;28;19916;-69
2022/12/12 05:07:22;;;;;;;;;;;;;;;;;;5021232;28;19921;-69
2022/12/12 05:09:48;;;;;;;;;;;;;;;;;;5011109;28;19913;-69
2022/12/12 05:12:15;;;;;;;;;;;;;;;;;;5010729;28;19910;-69
2022/12/12 05:14:41;;;;;;;;;;;;;;;;;;5012484;28;19913;-69
2022/12/12 05:17:07;;;;;;;;;;;;;;;;;;5016482;28;20290;-69
2022/12/12 05:19:33;;;;;;;;;;;;;;;;;;5011254;28;20064;-70
2022/12/12 05:21:58;;;;;;;;;;;;;;;;;;5019197;28;20636;-70
2022/12/12 05:24:29;;;;;;;;;;;;;;;;;;5029615;28;19913;-70
2022/12/12 05:26:55;;;;;;;;;;;;;;;;;;5029842;28;19917;-70
2022/12/12 05:29:22;;;;;;;;;;;;;;;;;;5029909;28;20028;-70
2022/12/12 05:31:47;;;;;;;;;;;;;;;;;;5029688;28;19920;-68
2022/12/12 05:34:13;;;;;;;;;;;;;;;;;;5030046;28;19943;-68
2022/12/12 05:36:39;;;;;;;;;;;;;;;;;;5022575;28;20446;-68
2022/12/12 05:39:05;;;;;;;;;;;;;;;;;;5011026;28;19920;-68
2022/12/12 05:41:31;;;;;;;;;;;;;;;;;;5010680;28;20632;-71
2022/12/12 05:43:57;;;;;;;;;;;;;;;;;;5029186;28;19948;-70
2022/12/12 05:46:23;;;;;;;;;;;;;;;;;;5029366;28;19917;-69
2022/12/12 05:48:49;;;;;;;;;;;;;;;;;;5029950;28;19924;-71
2022/12/12 05:51:15;;;;;;;;;;;;;;;;;;5029549;28;19913;-70
2022/12/12 05:53:41;;;;;;;;;;;;;;;;;;5029117;28;19913;-70
2022/12/12 05:56:10;;;;;;;;;;;;;;;;;;5023578;28;19943;-70
2022/12/12 05:58:36;;;;;;;;;;;;;;;;;;5022825;28;19920;-70
2022/12/12 06:01:01;;;;;;;;;;;;;;;;;;5017244;28;20345;-71
2022/12/12 06:03:27;;;;;;;;;;;;;;;;;;5011108;28;19913;-70
2022/12/12 06:05:53;;;;;;;;;;;;;;;;;;5011472;28;19921;-70
2022/12/12 06:08:19;;;;;;;;;;;;;;;;;;5015981;28;19921;-70
2022/12/12 06:10:45;;;;;;;;;;;;;;;;;;5027483;28;19948;-68
2022/12/12 06:13:11;;;;;;;;;;;;;;;;;;5029410;28;19942;-70
2022/12/12 06:15:37;;;;;;;;;;;;;;;;;;5028346;28;19948;-70
2022/12/12 06:18:03;;;;;;;;;;;;;;;;;;5025681;28;19916;-70
2022/12/12 06:20:29;;;;;;;;;;;;;;;;;;5009980;28;20437;-68
2022/12/12 06:22:55;;;;;;;;;;;;;;;;;;5019721;28;19962;-70
2022/12/12 06:25:21;;;;;;;;;;;;;;;;;;5022058;28;19909;-67
2022/12/12 06:27:47;;;;;;;;;;;;;;;;;;5020054;28;19928;-70
2022/12/12 06:30:13;;;;;;;;;;;;;;;;;;5025225;28;19913;-70
2022/12/12 06:32:39;;;;;;;;;;;;;;;;;;5028554;28;19913;-70
2022/12/12 06:35:04;;;;;;;;;;;;;;;;;;5029262;28;19913;-70
2022/12/12 06:37:30;;;;;;;;;;;;;;;;;;5028697;28;19917;-70
2022/12/12 06:39:56;;;;;;;;;;;;;;;;;;5028303;28;19909;-69
2022/12/12 06:42:22;;;;;;;;;;;;;;;;;;5028918;28;19916;-69
2022/12/12 06:44:48;;;;;;;;;;;;;;;;;;5029028;28;19921;-67
2022/12/12 06:47:14;;;;;;;;;;;;;;;;;;5020817;28;20382;-69
2022/12/12 06:49:40;;;;;;;;;;;;;;;;;;5022461;28;19913;-70
2022/12/12 06:52:06;;;;;;;;;;;;;;;;;;5028507;28;20349;-70
2022/12/12 06:54:31;;;;;;;;;;;;;;;;;;5028082;28;19912;-70
2022/12/12 06:56:57;;;;;;;;;;;;;;;;;;5028212;28;20386;-70
2022/12/12 06:59:23;;;;;;;;;;;;;;;;;;5027867;28;19996;-69
2022/12/12 07:01:49;;;;;;;;;;;;;;;;;;5028548;28;19913;-70
2022/12/12 07:04:15;;;;;;;;;;;;;;;;;;5029047;28;19909;-68
2022/12/12 07:06:41;;;;;;;;;;;;;;;;;;5028857;28;19913;-67
2022/12/12 07:09:07;;;;;;;;;;;;;;;;;;5010744;28;19976;-66
2022/12/12 07:11:33;;;;;;;;;;;;;;;;;;5020855;28;20333;-67
2022/12/12 07:14:00;;;;;;;;;;;;;;;;;;5028579;28;19953;-66
2022/12/12 07:16:26;;;;;;;;;;;;;;;;;;5018194;28;19964;-66
2022/12/12 07:18:52;;;;;;;;;;;;;;;;;;5013402;28;19917;-66
2022/12/12 07:21:18;;;;;;;;;;;;;;;;;;5028422;28;19917;-66
2022/12/12 07:23:43;;;;;;;;;;;;;;;;;;5028175;28;19931;-67
2022/12/12 07:26:09;;;;;;;;;;;;;;;;;;5028508;28;19913;-68
2022/12/12 07:28:37;;;;;;;;;;;;;;;;;;5030933;28;19932;-67
2022/12/12 07:31:02;;;;;;;;;;;;;;;;;;5029597;28;19967;-67
2022/12/12 07:33:28;;;;;;;;;;;;;;;;;;5024206;28;19963;-66
2022/12/12 07:35:54;;;;;;;;;;;;;;;;;;5025214;28;19979;-66
2022/12/12 07:38:20;;;;;;;;;;;;;;;;;;5017264;28;19916;-67
2022/12/12 07:40:46;;;;;;;;;;;;;;;;;;5013676;28;19925;-67
2022/12/12 07:43:12;;;;;;;;;;;;;;;;;;5030462;28;19921;-67
2022/12/12 07:45:38;;;;;;;;;;;;;;;;;;5020512;28;19928;-66
2022/12/12 07:48:04;;;;;;;;;;;;;;;;;;5018520;28;20792;-67
2022/12/12 07:50:29;;;;;;;;;;;;;;;;;;5031198;28;19913;-63
2022/12/12 07:52:55;;;;;;;;;;;;;;;;;;5031981;28;19909;-66
2022/12/12 07:55:21;;;;;;;;;;;;;;;;;;5032054;28;19913;-66
2022/12/12 07:57:47;;;;;;;;;;;;;;;;;;5032182;28;19913;-67
2022/12/12 08:00:13;;;;;;;;;;;;;;;;;;5031767;28;20772;-67
2022/12/12 08:02:39;;;;;;;;;;;;;;;;;;5013068;28;19913;-66
2022/12/12 08:05:05;;;;;;;;;;;;;;;;;;5012577;28;19910;-67
2022/12/12 08:07:31;;;;;;;;;;;;;;;;;;5030803;28;20382;-66
2022/12/12 08:09:57;;;;;;;;;;;;;;;;;;5031319;28;19952;-67
2022/12/12 08:12:23;;;;;;;;;;;;;;;;;;5032010;28;20382;-67
2022/12/12 08:14:49;;;;;;;;;;;;;;;;;;5031685;28;19928;-67
2022/12/12 08:17:15;;;;;;;;;;;;;;;;;;5031411;28;20366;-67
2022/12/12 08:19:40;;;;;;;;;;;;;;;;;;5031112;28;20000;-66
2022/12/12 08:22:07;;;;;;;;;;;;;;;;;;5014395;28;19933;-66
2022/12/12 08:24:33;;;;;;;;;;;;;;;;;;5012596;28;20005;-67
2022/12/12 08:26:59;;;;;;;;;;;;;;;;;;5012801;28;20630;-67
2022/12/12 08:29:25;;;;;;;;;;;;;;;;;;5012185;28;20004;-67
2022/12/12 08:31:50;;;;;;;;;;;;;;;;;;5012055;28;19914;-66
2022/12/12 08:34:16;;;;;;;;;;;;;;;;;;5013513;28;19910;-67
2022/12/12 08:36:42;;;;;;;;;;;;;;;;;;5026919;28;19909;-67
2022/12/12 08:39:08;;;;;;;;;;;;;;;;;;5029956;28;19909;-67
2022/12/12 08:41:34;;;;;;;;;;;;;;;;;;5030323;28;19913;-67
2022/12/12 08:44:00;;;;;;;;;;;;;;;;;;5024387;28;20022;-67
2022/12/12 08:46:26;;;;;;;;;;;;;;;;;;5030904;28;20424;-67
2022/12/12 08:48:52;;;;;;;;;;;;;;;;;;5030258;28;19924;-67
2022/12/12 08:51:18;;;;;;;;;;;;;;;;;;5030818;28;20435;-67
2022/12/12 08:53:44;;;;;;;;;;;;;;;;;;5031202;28;19996;-67
2022/12/12 08:56:10;;;;;;;;;;;;;;;;;;5030158;28;19917;-67
2022/12/12 08:58:36;;;;;;;;;;;;;;;;;;5011571;28;19928;-67
2022/12/12 09:01:02;;;;;;;;;;;;;;;;;;5013171;28;20358;-67
2022/12/12 09:03:28;;;;;;;;;;;;;;;;;;5011058;28;19917;-67
2022/12/12 09:05:54;;;;;;;;;;;;;;;;;;5014729;28;19913;-67
2022/12/12 09:08:20;;;;;;;;;;;;;;;;;;5022771;28;19921;-66
2022/12/12 09:10:46;;;;;;;;;;;;;;;;;;5016743;28;19956;-66
2022/12/12 09:13:12;;;;;;;;;;;;;;;;;;5029940;28;19913;-66
2022/12/12 09:15:38;;;;;;;;;;;;;;;;;;5030080;28;19913;-66
2022/12/12 09:18:04;;;;;;;;;;;;;;;;;;5012005;28;19914;-66
2022/12/12 09:20:30;;;;;;;;;;;;;;;;;;5021557;28;19908;-67
2022/12/12 09:22:56;;;;;;;;;;;;;;;;;;5019722;28;19924;-66
2022/12/12 09:25:23;;;;;;;;;;;;;;;;;;5015180;28;19920;-67
2022/12/12 09:27:49;;;;;;;;;;;;;;;;;;5016595;28;20008;-67
2022/12/12 09:30:15;;;;;;;;;;;;;;;;;;5013657;28;20012;-67
2022/12/12 09:32:43;;;;;;;;;;;;;;;;;;5010627;28;19938;-67
2022/12/12 09:35:10;;;;;;;;;;;;;;;;;;5012078;28;19909;-67
2022/12/12 09:37:36;;;;;;;;;;;;;;;;;;5014005;28;19959;-67
2022/12/12 09:40:02;;;;;;;;;;;;;;;;;;5029724;28;20385;-67
2022/12/12 09:42:27;;;;;;;;;;;;;;;;;;5029589;28;19924;-67
2022/12/12 09:44:53;;;;;;;;;;;;;;;;;;5029338;28;20435;-67
2022/12/12 09:47:20;;;;;;;;;;;;;;;;;;5029141;28;19921;-67
2022/12/12 09:49:46;;;;;;;;;;;;;;;;;;5029152;28;19913;-67
2022/12/12 09:52:12;;;;;;;;;;;;;;;;;;5027624;28;20278;-67
2022/12/12 09:54:37;;;;;;;;;;;;;;;;;;5010576;28;19953;-67
2022/12/12 09:57:03;;;;;;;;;;;;;;;;;;5010432;28;19975;-66
2022/12/12 09:59:29;;;;;;;;;;;;;;;;;;5012381;28;19914;-66
2022/12/12 10:01:55;;;;;;;;;;;;;;;;;;5009945;28;19910;-67
2022/12/12 10:04:21;;;;;;;;;;;;;;;;;;5010294;28;20322;-66
2022/12/12 10:06:47;;;;;;;;;;;;;;;;;;5028999;28;19936;-66
2022/12/12 10:09:13;;;;;;;;;;;;;;;;;;5022313;28;19925;-66
2022/12/12 10:11:53;;;;;;;;;;;;;;;;;;5015519;28;19917;-66
2022/12/12 10:14:19;;;;;;;;;;;;;;;;;;5009785;28;19909;-66
2022/12/12 10:16:44;;;;;;;;;;;;;;;;;;5009754;28;19963;-66
2022/12/12 10:19:10;;;;;;;;;;;;;;;;;;5016821;28;20274;-66
2022/12/12 10:21:39;;;;;;;;;;;;;;;;;;5028829;28;19916;-67
2022/12/12 10:24:05;;;;;;;;;;;;;;;;;;5029335;28;19913;-67
2022/12/12 10:26:31;;;;;;;;;;;;;;;;;;5028690;28;19920;-67
2022/12/12 10:28:57;;;;;;;;;;;;;;;;;;5028655;28;20034;-66
2022/12/12 10:31:23;;;;;;;;;;;;;;;;;;5022192;28;19916;-66
2022/12/12 10:33:49;;;;;;;;;;;;;;;;;;5016002;28;20294;-66
2022/12/12 10:36:14;;;;;;;;;;;;;;;;;;5022291;28;19917;-67
2022/12/12 10:38:40;;;;;;;;;;;;;;;;;;5028543;28;19931;-67
2022/12/12 10:41:06;;;;;;;;;;;;;;;;;;5028722;28;19913;-67
2022/12/12 10:43:32;;;;;;;;;;;;;;;;;;5028845;28;19959;-66
2022/12/12 10:45:58;;;;;;;;;;;;;;;;;;5027891;28;20599;-66
2022/12/12 10:48:24;;;;;;;;;;;;;;;;;;5028518;28;19918;-66
2022/12/12 10:50:50;;;;;;;;;;;;;;;;;;5029000;28;19913;-67
2022/12/12 10:53:16;;;;;;;;;;;;;;;;;;5028378;28;19909;-66
2022/12/12 10:55:42;;;;;;;;;;;;;;;;;;5014397;28;20291;-66
2022/12/12 10:58:08;;;;;;;;;;;;;;;;;;5009758;28;19914;-66
2022/12/12 11:00:34;;;;;;;;;;;;;;;;;;5012557;28;19913;-66
2022/12/12 11:02:59;;;;;;;;;;;;;;;;;;5030983;28;19913;-66
2022/12/12 11:05:25;;;;;;;;;;;;;;;;;;5033090;28;20333;-67
2022/12/12 11:07:51;;;;;;;;;;;;;;;;;;5034937;28;19925;-67
2022/12/12 11:10:17;;;;;;;;;;;;;;;;;;5012857;28;20036;-66
2022/12/12 11:12:43;;;;;;;;;;;;;;;;;;5012775;28;19913;-65
2022/12/12 11:15:09;;;;;;;;;;;;;;;;;;5012935;28;20008;-66
2022/12/12 11:17:35;;;;;;;;;;;;;;;;;;5013326;28;19909;-66
2022/12/12 11:20:01;;;;;;;;;;;;;;;;;;5020391;28;19909;-66
2022/12/12 11:22:27;;;;;;;;;;;;;;;;;;5032239;28;20374;-66
2022/12/12 11:24:52;;;;;;;;;;;;;;;;;;5032276;28;19917;-66
2022/12/12 11:27:19;;;;;;;;;;;;;;;;;;5031527;28;20030;-66
2022/12/12 11:29:45;;;;;;;;;;;;;;;;;;5031750;28;19917;-66
2022/12/12 11:32:11;;;;;;;;;;;;;;;;;;5025127;28;19935;-66
2022/12/12 11:34:36;;;;;;;;;;;;;;;;;;5031942;28;20293;-66
2022/12/12 11:37:02;;;;;;;;;;;;;;;;;;5031745;28;19909;-67
2022/12/12 11:39:28;;;;;;;;;;;;;;;;;;5031996;28;19909;-68
2022/12/12 11:41:54;;;;;;;;;;;;;;;;;;5028958;28;19921;-68
2022/12/12 11:44:20;;;;;;;;;;;;;;;;;;5013844;28;20008;-68
2022/12/12 11:46:46;;;;;;;;;;;;;;;;;;5025450;28;19913;-68
2022/12/12 11:49:12;;;;;;;;;;;;;;;;;;5019263;28;19925;-66
2022/12/12 11:51:38;;;;;;;;;;;;;;;;;;5025346;28;19913;-68
2022/12/12 11:54:04;;;;;;;;;;;;;;;;;;5031453;28;19935;-68
2022/12/12 11:56:30;;;;;;;;;;;;;;;;;;5031459;28;19913;-68
2022/12/12 11:58:56;;;;;;;;;;;;;;;;;;5028092;28;19917;-68
2022/12/12 12:01:22;;;;;;;;;;;;;;;;;;5028920;28;19909;-68
2022/12/12 12:03:47;;;;;;;;;;;;;;;;;;5031288;28;20368;-68
2022/12/12 12:06:13;;;;;;;;;;;;;;;;;;5031777;28;19913;-68
2022/12/12 12:08:39;;;;;;;;;;;;;;;;;;5037144;28;19921;-68
2022/12/12 12:11:05;;;;;;;;;;;;;;;;;;5030970;28;19920;-68
2022/12/12 12:13:31;;;;;;;;;;;;;;;;;;5016525;28;19933;-68
2022/12/12 12:15:57;;;;;;;;;;;;;;;;;;5012827;28;20492;-68
2022/12/12 12:18:23;;;;;;;;;;;;;;;;;;5013622;28;19909;-68
2022/12/12 12:20:49;;;;;;;;;;;;;;;;;;5031092;28;20338;-68
2022/12/12 12:23:14;;;;;;;;;;;;;;;;;;5031528;28;19910;-68
2022/12/12 12:25:40;;;;;;;;;;;;;;;;;;5030915;28;20325;-68
2022/12/12 12:28:06;;;;;;;;;;;;;;;;;;5030905;28;19929;-68
2022/12/12 12:30:32;;;;;;;;;;;;;;;;;;5031170;28;20374;-68
2022/12/12 12:32:58;;;;;;;;;;;;;;;;;;5031382;28;19913;-68
2022/12/12 12:35:24;;;;;;;;;;;;;;;;;;5030923;28;20382;-68
2022/12/12 12:37:50;;;;;;;;;;;;;;;;;;5030890;28;19978;-68
2022/12/12 12:40:16;;;;;;;;;;;;;;;;;;5030372;28;19920;-68
2022/12/12 12:42:41;;;;;;;;;;;;;;;;;;5030161;28;19956;-68
2022/12/12 12:45:07;;;;;;;;;;;;;;;;;;5031033;28;19919;-68
2022/12/12 12:47:33;;;;;;;;;;;;;;;;;;5030526;28;19928;-68
2022/12/12 12:49:59;;;;;;;;;;;;;;;;;;5030531;28;19916;-68
2022/12/12 12:52:25;;;;;;;;;;;;;;;;;;5030358;28;20362;-68
2022/12/12 12:54:51;;;;;;;;;;;;;;;;;;5028809;28;20008;-69
2022/12/12 12:57:17;;;;;;;;;;;;;;;;;;5030084;28;19916;-68
2022/12/12 12:59:43;;;;;;;;;;;;;;;;;;5029847;28;19913;-68
2022/12/12 13:02:09;;;;;;;;;;;;;;;;;;5030085;28;19914;-68
2022/12/12 13:04:35;;;;;;;;;;;;;;;;;;5029927;28;20289;-69
2022/12/12 13:07:01;;;;;;;;;;;;;;;;;;5031115;28;19910;-69
2022/12/12 13:09:27;;;;;;;;;;;;;;;;;;5031397;28;19924;-68
2022/12/12 13:11:53;;;;;;;;;;;;;;;;;;5013905;28;19963;-69
2022/12/12 13:14:19;;;;;;;;;;;;;;;;;;5027936;28;20007;-68
2022/12/12 13:16:45;;;;;;;;;;;;;;;;;;5012345;28;20004;-69
2022/12/12 13:19:11;;;;;;;;;;;;;;;;;;5011214;28;19987;-69
2022/12/12 13:21:37;;;;;;;;;;;;;;;;;;5010742;28;19913;-69
2022/12/12 13:24:02;;;;;;;;;;;;;;;;;;5010465;28;19936;-68
2022/12/12 13:26:28;;;;;;;;;;;;;;;;;;5010291;28;19972;-69
2022/12/12 13:28:54;;;;;;;;;;;;;;;;;;5024041;28;19931;-69
2022/12/12 13:31:21;;;;;;;;;;;;;;;;;;5029919;28;19944;-68
2022/12/12 13:33:47;;;;;;;;;;;;;;;;;;5029725;28;19909;-67
2022/12/12 13:36:13;;;;;;;;;;;;;;;;;;5023138;28;19915;-68
2022/12/12 13:38:39;;;;;;;;;;;;;;;;;;5028873;28;19962;-69
2022/12/12 13:41:07;;;;;;;;;;;;;;;;;;5029531;28;19932;-69
2022/12/12 13:43:33;;;;;;;;;;;;;;;;;;5029518;28;19909;-68
2022/12/12 13:45:59;;;;;;;;;;;;;;;;;;5029205;28;19937;-69
2022/12/12 13:48:28;;;;;;;;;;;;;;;;;;5029164;28;19929;-68
2022/12/12 13:50:54;;;;;;;;;;;;;;;;;;5029124;28;19909;-69
2022/12/12 13:53:20;;;;;;;;;;;;;;;;;;5029067;28;19935;-68
2022/12/12 13:55:46;;;;;;;;;;;;;;;;;;5029569;28;19925;-68
2022/12/12 13:58:11;;;;;;;;;;;;;;;;;;5029632;28;19932;-69
2022/12/12 14:00:37;;;;;;;;;;;;;;;;;;5022569;28;20283;-68
2022/12/12 14:03:03;;;;;;;;;;;;;;;;;;5028900;28;19944;-68
2022/12/12 14:05:29;;;;;;;;;;;;;;;;;;5029552;28;19909;-69
2022/12/12 14:07:55;;;;;;;;;;;;;;;;;;5029817;28;19933;-68
2022/12/12 14:10:21;;;;;;;;;;;;;;;;;;5010316;28;19914;-68
2022/12/12 14:12:47;;;;;;;;;;;;;;;;;;5010358;28;20667;-69
2022/12/12 14:15:13;;;;;;;;;;;;;;;;;;5010187;28;19913;-69
2022/12/12 14:17:39;;;;;;;;;;;;;;;;;;5012692;28;20020;-69
2022/12/12 14:20:05;;;;;;;;;;;;;;;;;;5028900;28;20333;-68
2022/12/12 14:22:31;;;;;;;;;;;;;;;;;;5028590;28;19913;-69
2022/12/12 14:24:58;;;;;;;;;;;;;;;;;;5014430;28;20271;-68
2022/12/12 14:27:24;;;;;;;;;;;;;;;;;;5024596;28;20023;-69
2022/12/12 14:29:50;;;;;;;;;;;;;;;;;;5020886;28;20028;-67
2022/12/12 14:32:15;;;;;;;;;;;;;;;;;;5015097;28;19920;-69
2022/12/12 14:34:41;;;;;;;;;;;;;;;;;;5018827;28;19914;-69
2022/12/12 14:37:07;;;;;;;;;;;;;;;;;;5015708;28;20016;-69
2022/12/12 14:39:33;;;;;;;;;;;;;;;;;;5021134;28;19913;-67
2022/12/12 14:41:59;;;;;;;;;;;;;;;;;;5015202;28;19939;-70
2022/12/12 14:44:25;;;;;;;;;;;;;;;;;;5016916;28;19913;-69
2022/12/12 14:46:51;;;;;;;;;;;;;;;;;;5013592;28;20009;-70
2022/12/12 14:49:17;;;;;;;;;;;;;;;;;;5014854;28;19952;-69
2022/12/12 14:51:43;;;;;;;;;;;;;;;;;;5013318;28;20390;-68
2022/12/12 14:54:09;;;;;;;;;;;;;;;;;;5014829;28;19914;-69
2022/12/12 14:56:35;;;;;;;;;;;;;;;;;;5012781;28;20461;-69
2022/12/12 14:59:04;;;;;;;;;;;;;;;;;;5015955;28;19971;-69
2022/12/12 15:01:30;;;;;;;;;;;;;;;;;;5014855;28;20042;-69
2022/12/12 15:03:56;;;;;;;;;;;;;;;;;;5016148;28;21368;-69
2022/12/12 15:06:22;;;;;;;;;;;;;;;;;;5013746;28;19913;-69
2022/12/12 15:08:48;;;;;;;;;;;;;;;;;;5016570;28;19955;-69
2022/12/12 15:11:14;;;;;;;;;;;;;;;;;;5013095;28;19924;-69
2022/12/12 15:13:40;;;;;;;;;;;;;;;;;;5016653;28;19914;-69
2022/12/12 15:16:06;;;;;;;;;;;;;;;;;;5017080;28;19918;-69
2022/12/12 15:18:32;;;;;;;;;;;;;;;;;;5013241;28;19917;-68
2022/12/12 15:20:57;;;;;;;;;;;;;;;;;;5014595;28;20019;-65
2022/12/12 15:23:23;;;;;;;;;;;;;;;;;;5018444;28;19921;-68
2022/12/12 15:25:49;;;;;;;;;;;;;;;;;;5017482;28;19913;-68
2022/12/12 15:28:15;;;;;;;;;;;;;;;;;;5014750;28;19933;-70
2022/12/12 15:30:41;;;;;;;;;;;;;;;;;;5017085;28;19937;-70
2022/12/12 15:33:07;;;;;;;;;;;;;;;;;;5015124;28;20287;-69
2022/12/12 15:35:33;;;;;;;;;;;;;;;;;;5016218;28;19957;-69
2022/12/12 15:37:59;;;;;;;;;;;;;;;;;;5012851;28;19916;-70
2022/12/12 15:40:25;;;;;;;;;;;;;;;;;;5017254;28;19917;-69
2022/12/12 15:42:51;;;;;;;;;;;;;;;;;;5013679;28;19918;-69
2022/12/12 15:45:17;;;;;;;;;;;;;;;;;;5015404;28;19913;-70
2022/12/12 15:47:42;;;;;;;;;;;;;;;;;;5015212;28;19921;-69
2022/12/12 15:50:08;;;;;;;;;;;;;;;;;;5019830;28;19959;-69
2022/12/12 15:52:34;;;;;;;;;;;;;;;;;;5020813;28;20371;-69
2022/12/12 15:55:01;;;;;;;;;;;;;;;;;;5020490;28;19913;-70
2022/12/12 15:57:27;;;;;;;;;;;;;;;;;;5017611;28;19924;-70
2022/12/12 15:59:54;;;;;;;;;;;;;;;;;;5025646;28;19924;-69
2022/12/12 16:02:20;;;;;;;;;;;;;;;;;;5024073;28;19921;-69
2022/12/12 16:04:45;;;;;;;;;;;;;;;;;;5021263;28;20428;-70
2022/12/12 16:07:11;;;;;;;;;;;;;;;;;;5018395;28;19920;-70
2022/12/12 16:09:37;;;;;;;;;;;;;;;;;;5016333;28;19972;-69
2022/12/12 16:12:03;;;;;;;;;;;;;;;;;;5017959;28;20003;-70
2022/12/12 16:14:29;;;;;;;;;;;;;;;;;;5016486;28;19916;-69
2022/12/12 16:16:55;;;;;;;;;;;;;;;;;;5019617;28;19984;-68
2022/12/12 16:19:21;;;;;;;;;;;;;;;;;;5021440;28;19924;-70
2022/12/12 16:21:47;;;;;;;;;;;;;;;;;;5023372;28;19918;-70
2022/12/12 16:24:13;;;;;;;;;;;;;;;;;;5016779;28;19949;-71
2022/12/12 16:26:39;;;;;;;;;;;;;;;;;;5015860;28;19917;-71
2022/12/12 16:29:05;;;;;;;;;;;;;;;;;;5022781;28;19935;-72
2022/12/12 16:31:31;;;;;;;;;;;;;;;;;;5020588;28;19925;-72
2022/12/12 16:33:57;;;;;;;;;;;;;;;;;;5018837;28;19924;-71
2022/12/12 16:36:23;;;;;;;;;;;;;;;;;;5021478;28;19967;-73
2022/12/12 16:38:48;;;;;;;;;;;;;;;;;;5020337;28;20337;-73
2022/12/12 16:41:14;;;;;;;;;;;;;;;;;;5017852;28;19964;-73
2022/12/12 16:43:40;;;;;;;;;;;;;;;;;;5016562;28;20567;-73
2022/12/12 16:46:06;;;;;;;;;;;;;;;;;;5018393;28;19917;-73
2022/12/12 16:48:32;;;;;;;;;;;;;;;;;;5014986;28;19925;-73